createdAt,value
2022-10-07T00:00:54.353Z,101145.63
2022-10-07T00:03:35.823Z,101151.00
2022-10-07T00:06:23.058Z,101152.56
2022-10-07T00:09:09.487Z,101148.72
2022-10-07T00:11:44.612Z,101152.25
2022-10-07T00:14:22.827Z,101152.75
2022-10-07T00:16:54.949Z,101161.56
2022-10-07T00:19:24.955Z,101152.59
2022-10-07T00:22:01.344Z,101146.88
2022-10-07T00:24:31.317Z,101153.47
2022-10-07T00:27:13.706Z,101148.44
2022-10-07T00:29:48.787Z,101143.38
2022-10-07T00:32:23.877Z,101151.63
2022-10-07T00:35:02.206Z,101149.94
2022-10-07T00:37:37.027Z,101142.88
2022-10-07T00:40:13.273Z,101144.22
2022-10-07T00:42:47.388Z,101145.91
2022-10-07T00:45:27.261Z,101140.66
2022-10-07T00:48:05.028Z,101144.53
2022-10-07T00:50:44.762Z,101133.13
2022-10-07T00:53:20.797Z,101140.53
2022-10-07T00:56:04.667Z,101142.41
2022-10-07T00:58:50.466Z,101137.69
2022-10-07T01:01:28.608Z,101140.88
2022-10-07T01:04:04.294Z,101132.16
2022-10-07T01:06:40.525Z,101135.19
2022-10-07T01:09:14.217Z,101133.63
2022-10-07T01:12:02.187Z,101131.47
2022-10-07T01:14:41.450Z,101125.94
2022-10-07T01:17:22.151Z,101122.75
2022-10-07T01:20:10.491Z,101122.06
2022-10-07T01:23:19.997Z,101116.38
2022-10-07T01:26:07.010Z,101112.16
2022-10-07T01:28:56.953Z,101112.16
2022-10-07T01:31:43.547Z,101114.19
2022-10-07T01:34:26.854Z,101118.41
2022-10-07T01:37:03.392Z,101117.03
2022-10-07T01:39:43.778Z,101116.38
2022-10-07T01:42:23.374Z,101114.69
2022-10-07T01:44:58.630Z,101113.53
2022-10-07T01:47:38.253Z,101110.31
2022-10-07T01:50:18.157Z,101118.75
2022-10-07T01:53:15.508Z,101114.69
2022-10-07T01:56:27.427Z,101111.03
2022-10-07T01:59:25.115Z,101108.34
2022-10-07T02:02:00.031Z,101110.69
2022-10-07T02:04:57.806Z,101115.22
2022-10-07T02:07:36.992Z,101107.81
2022-10-07T02:10:48.387Z,101108.00
2022-10-07T02:13:41.361Z,101109.47
2022-10-07T02:16:39.335Z,101104.63
2022-10-07T02:19:35.684Z,101095.72
2022-10-07T02:22:11.478Z,101103.63
2022-10-07T02:24:48.204Z,101103.63
2022-10-07T02:27:23.143Z,101097.56
2022-10-07T02:30:11.730Z,101101.75
2022-10-07T02:32:56.431Z,101106.31
2022-10-07T02:35:40.017Z,101096.03
2022-10-07T02:38:14.614Z,101103.28
2022-10-07T02:41:34.319Z,101100.91
2022-10-07T02:44:32.578Z,101100.09
2022-10-07T02:47:32.295Z,101101.41
2022-10-07T02:50:13.813Z,101100.75
2022-10-07T02:53:07.920Z,101102.94
2022-10-07T02:55:47.922Z,101101.09
2022-10-07T02:58:28.229Z,101103.63
2022-10-07T03:01:11.522Z,101100.25
2022-10-07T03:03:54.791Z,101102.25
2022-10-07T03:06:30.595Z,101098.38
2022-10-07T03:09:09.538Z,101102.25
2022-10-07T03:11:54.399Z,101104.94
2022-10-07T03:14:28.784Z,101087.44
2022-10-07T03:17:02.968Z,101092.47
2022-10-07T03:19:40.149Z,101087.78
2022-10-07T03:22:15.721Z,101099.88
2022-10-07T03:24:54.661Z,101093.31
2022-10-07T03:27:36.950Z,101098.88
2022-10-07T03:30:12.259Z,101096.34
2022-10-07T03:32:57.942Z,101094.81
2022-10-07T03:35:49.386Z,101088.06
2022-10-07T03:38:34.287Z,101095.16
2022-10-07T03:41:15.152Z,101083.03
2022-10-07T03:43:51.149Z,101085.72
2022-10-07T03:46:32.097Z,101086.72
2022-10-07T03:49:13.903Z,101096.13
2022-10-07T03:51:48.885Z,101083.03
2022-10-07T03:54:41.345Z,101080.00
2022-10-07T03:57:43.065Z,101077.97
2022-10-07T04:00:24.434Z,101087.22
2022-10-07T04:03:11.678Z,101084.66
2022-10-07T04:06:03.432Z,101084.00
2022-10-07T04:08:55.753Z,101082.13
2022-10-07T04:11:33.811Z,101076.25
2022-10-07T04:14:23.394Z,101079.28
2022-10-07T04:17:10.135Z,101078.59
2022-10-07T04:19:43.413Z,101076.91
2022-10-07T04:22:22.074Z,101077.41
2022-10-07T04:25:21.231Z,101074.88
2022-10-07T04:28:05.118Z,101068.50
2022-10-07T04:30:40.006Z,101068.50
2022-10-07T04:33:21.484Z,101068.16
2022-10-07T04:36:06.706Z,101067.97
2022-10-07T04:38:55.301Z,101062.78
2022-10-07T04:41:42.444Z,101067.28
2022-10-07T04:44:18.059Z,101071.69
2022-10-07T04:47:15.476Z,101069.16
2022-10-07T04:49:59.867Z,101075.53
2022-10-07T04:52:40.458Z,101078.38
2022-10-07T04:55:21.845Z,101082.56
2022-10-07T04:58:06.320Z,101074.69
2022-10-07T05:00:50.867Z,101082.75
2022-10-07T05:03:32.767Z,101084.75
2022-10-07T05:06:14.111Z,101081.88
2022-10-07T05:08:53.162Z,101080.22
2022-10-07T05:11:37.715Z,101074.84
2022-10-07T05:14:27.861Z,101078.22
2022-10-07T05:17:14.234Z,101079.75
2022-10-07T05:19:52.399Z,101079.56
2022-10-07T05:22:34.074Z,101082.94
2022-10-07T05:25:16.778Z,101079.75
2022-10-07T05:27:58.314Z,101080.44
2022-10-07T05:30:42.057Z,101083.31
2022-10-07T05:33:28.913Z,101079.44
2022-10-07T05:36:08.997Z,101088.41
2022-10-07T05:38:53.284Z,101087.09
2022-10-07T05:41:31.512Z,101089.44
2022-10-07T05:44:06.308Z,101086.94
2022-10-07T05:46:56.137Z,101091.50
2022-10-07T05:49:44.394Z,101088.28
2022-10-07T05:52:25.302Z,101092.84
2022-10-07T05:55:06.968Z,101083.91
2022-10-07T05:57:47.743Z,101092.81
2022-10-07T06:00:29.265Z,101092.06
2022-10-07T06:03:10.305Z,101094.44
2022-10-07T06:05:53.772Z,101092.53
2022-10-07T06:08:37.729Z,101083.19
2022-10-07T06:11:35.174Z,101090.03
2022-10-07T06:14:16.412Z,101095.81
2022-10-07T06:16:59.197Z,101092.53
2022-10-07T06:22:24.783Z,101094.50
2022-10-07T06:25:08.245Z,101094.38
2022-10-07T06:27:46.439Z,101092.56
2022-10-07T06:30:22.779Z,101096.78
2022-10-07T06:32:56.502Z,101089.81
2022-10-07T06:35:35.211Z,101097.78
2022-10-07T06:38:10.496Z,101090.78
2022-10-07T06:40:56.840Z,101085.81
2022-10-07T06:43:36.570Z,101089.41
2022-10-07T06:46:20.606Z,101094.91
2022-10-07T06:48:58.942Z,101094.16
2022-10-07T06:51:33.013Z,101098.13
2022-10-07T06:54:11.368Z,101095.56
2022-10-07T06:56:48.673Z,101096.50
2022-10-07T06:59:21.209Z,101087.63
2022-10-07T07:02:10.780Z,101088.94
2022-10-07T07:04:44.790Z,101091.78
2022-10-07T07:07:25.008Z,101082.22
2022-10-07T07:10:01.029Z,101087.75
2022-10-07T07:12:42.216Z,101084.84
2022-10-07T07:15:18.498Z,101074.44
2022-10-07T07:17:52.910Z,101080.13
2022-10-07T07:20:35.359Z,101073.69
2022-10-07T07:23:17.007Z,101082.09
2022-10-07T07:25:55.417Z,101076.25
2022-10-07T07:28:36.178Z,101080.47
2022-10-07T07:31:18.424Z,101084.41
2022-10-07T07:33:54.477Z,101079.81
2022-10-07T07:36:36.340Z,101080.84
2022-10-07T07:39:14.122Z,101077.72
2022-10-07T07:41:51.339Z,101082.50
2022-10-07T07:44:34.076Z,101083.06
2022-10-07T07:47:17.998Z,101079.13
2022-10-07T07:50:00.351Z,101072.78
2022-10-07T07:52:36.968Z,101075.66
2022-10-07T07:55:20.888Z,101077.28
2022-10-07T07:57:53.807Z,101073.00
2022-10-07T08:00:37.680Z,101072.16
2022-10-07T08:03:14.342Z,101077.53
2022-10-07T08:05:52.791Z,101073.28
2022-10-07T08:08:30.125Z,101069.25
2022-10-07T08:11:12.675Z,101072.34
2022-10-07T08:13:52.411Z,101072.31
2022-10-07T08:16:35.204Z,101067.22
2022-10-07T08:19:04.692Z,101063.81
2022-10-07T08:21:36.545Z,101067.03
2022-10-07T08:24:33.576Z,101060.31
2022-10-07T08:27:03.653Z,101059.78
2022-10-07T08:29:47.774Z,101052.53
2022-10-07T08:32:15.652Z,101051.78
2022-10-07T08:34:52.481Z,101052.00
2022-10-07T08:37:27.795Z,101047.94
2022-10-07T08:40:00.557Z,101045.03
2022-10-07T08:42:44.713Z,101044.28
2022-10-07T08:45:34.625Z,101030.84
2022-10-07T08:48:15.709Z,101035.59
2022-10-07T08:51:12.651Z,101032.78
2022-10-07T08:53:49.332Z,101026.84
2022-10-07T08:56:24.248Z,101020.84
2022-10-07T08:58:59.814Z,101019.22
2022-10-07T09:01:42.659Z,101011.16
2022-10-07T09:04:31.229Z,101019.16
2022-10-07T09:07:33.206Z,101021.31
2022-10-07T09:10:30.492Z,101019.03
2022-10-07T09:13:08.910Z,101012.84
2022-10-07T09:15:57.395Z,101010.91
2022-10-07T09:18:35.335Z,101013.66
2022-10-07T09:21:23.603Z,101011.94
2022-10-07T09:24:15.441Z,101006.34
2022-10-07T09:26:44.865Z,101005.34
2022-10-07T09:29:25.653Z,100999.16
2022-10-07T09:31:53.701Z,100996.50
2022-10-07T09:34:35.285Z,100994.91
2022-10-07T09:40:59.155Z,100987.97
2022-10-07T09:43:44.445Z,100988.25
2022-10-07T09:46:36.324Z,100983.84
2022-10-07T09:49:07.586Z,100976.28
2022-10-07T09:52:01.207Z,100977.63
2022-10-07T09:54:40.707Z,100977.81
2022-10-07T09:57:31.120Z,100970.16
2022-10-07T10:00:15.831Z,100969.59
2022-10-07T10:03:06.363Z,100965.78
2022-10-07T10:05:58.100Z,100967.00
2022-10-07T10:08:34.038Z,100962.50
2022-10-07T10:11:34.615Z,100955.22
2022-10-07T10:14:29.266Z,100947.09
2022-10-07T10:17:06.820Z,100946.44
2022-10-07T10:19:59.843Z,100951.91
2022-10-07T10:22:37.672Z,100938.53
2022-10-07T10:25:33.226Z,100943.44
2022-10-07T10:28:17.596Z,100938.75
2022-10-07T10:31:22.919Z,100936.81
2022-10-07T10:34:29.221Z,100933.91
2022-10-07T10:37:16.340Z,100928.06
2022-10-07T10:40:13.927Z,100921.44
2022-10-07T10:43:08.813Z,100925.66
2022-10-07T10:45:55.235Z,100914.69
2022-10-07T10:48:29.548Z,100925.38
2022-10-07T10:51:35.377Z,100913.13
2022-10-07T10:54:10.795Z,100902.13
2022-10-07T10:57:02.171Z,100897.91
2022-10-07T10:59:40.853Z,100899.84
2022-10-07T11:02:38.075Z,100893.72
2022-10-07T11:05:30.140Z,100887.00
2022-10-07T11:08:27.537Z,100877.41
2022-10-07T11:11:04.228Z,100877.66
2022-10-07T11:14:03.709Z,100866.59
2022-10-07T11:16:47.085Z,100865.72
2022-10-07T11:19:24.042Z,100868.03
2022-10-07T11:22:02.611Z,100850.47
2022-10-07T11:24:45.729Z,100846.72
2022-10-07T11:27:21.533Z,100845.66
2022-10-07T11:30:08.164Z,100843.72
2022-10-07T11:32:47.742Z,100835.72
2022-10-07T11:35:28.204Z,100833.19
2022-10-07T11:38:15.312Z,100820.94
2022-10-07T11:41:08.552Z,100821.50
2022-10-07T11:43:55.791Z,100815.38
2022-10-07T11:46:41.660Z,100811.03
2022-10-07T11:49:36.175Z,100811.06
2022-10-07T11:52:38.038Z,100803.44
2022-10-07T11:55:12.172Z,100799.53
2022-10-07T11:58:02.919Z,100797.97
2022-10-07T12:00:44.705Z,100791.44
2022-10-07T12:03:25.190Z,100785.97
2022-10-07T12:06:06.710Z,100778.25
2022-10-07T12:08:50.728Z,100775.53
2022-10-07T12:11:47.146Z,100774.34
2022-10-07T12:14:35.432Z,100767.81
2022-10-07T12:17:20.818Z,100760.13
2022-10-07T12:20:46.370Z,100758.22
2022-10-07T12:23:22.316Z,100749.31
2022-10-07T12:26:27.018Z,100740.91
2022-10-07T12:29:06.466Z,100739.25
2022-10-07T12:31:49.363Z,100743.91
2022-10-07T12:34:35.502Z,100729.09
2022-10-07T12:37:49.913Z,100732.72
2022-10-07T12:40:32.338Z,100723.97
2022-10-07T12:43:30.984Z,100729.47
2022-10-07T12:46:06.235Z,100728.13
2022-10-07T12:48:45.027Z,100716.56
2022-10-07T12:51:44.094Z,100729.53
2022-10-07T12:54:33.881Z,100716.84
2022-10-07T12:57:11.163Z,100715.47
2022-10-07T13:00:02.243Z,100715.22
2022-10-07T13:02:54.329Z,100709.19
2022-10-07T13:05:58.753Z,100704.00
2022-10-07T13:08:55.169Z,100700.97
2022-10-07T13:11:47.874Z,100704.56
2022-10-07T13:14:34.306Z,100699.91
2022-10-07T13:17:47.356Z,100701.81
2022-10-07T13:20:39.735Z,100700.72
2022-10-07T13:23:23.211Z,100696.59
2022-10-07T13:26:04.738Z,100693.59
2022-10-07T13:28:44.226Z,100686.16
2022-10-07T13:31:19.893Z,100680.66
2022-10-07T13:33:56.179Z,100677.56
2022-10-07T13:36:36.537Z,100677.00
2022-10-07T13:39:18.389Z,100672.59
2022-10-07T13:41:59.376Z,100675.38
2022-10-07T13:44:37.884Z,100666.28
2022-10-07T13:47:25.715Z,100664.06
2022-10-07T13:50:02.498Z,100665.56
2022-10-07T13:52:48.620Z,100670.47
2022-10-07T13:55:35.786Z,100658.44
2022-10-07T13:58:12.674Z,100660.69
2022-10-07T14:00:53.563Z,100654.38
2022-10-07T14:03:28.928Z,100648.03
2022-10-07T14:05:56.518Z,100649.41
2022-10-07T14:08:30.473Z,100648.59
2022-10-07T14:11:15.189Z,100650.28
2022-10-07T14:13:49.310Z,100646.38
2022-10-07T14:16:26.934Z,100643.63
2022-10-07T14:19:04.459Z,100635.56
2022-10-07T14:21:41.310Z,100635.34
2022-10-07T14:24:22.694Z,100625.38
2022-10-07T14:27:06.950Z,100622.69
2022-10-07T14:29:51.662Z,100617.69
2022-10-07T14:32:43.418Z,100622.09
2022-10-07T14:35:19.298Z,100628.16
2022-10-07T14:37:55.990Z,100625.88
2022-10-07T14:40:32.713Z,100620.94
2022-10-07T14:43:18.326Z,100618.19
2022-10-07T14:46:00.766Z,100622.06
2022-10-07T14:48:52.137Z,100616.22
2022-10-07T14:51:32.402Z,100612.00
2022-10-07T14:54:19.320Z,100606.50
2022-10-07T14:56:56.963Z,100602.38
2022-10-07T14:59:35.536Z,100603.09
2022-10-07T15:02:07.980Z,100607.16
2022-10-07T15:04:52.304Z,100602.22
2022-10-07T15:07:27.517Z,100602.41
2022-10-07T15:10:02.959Z,100597.56
2022-10-07T15:12:45.827Z,100591.53
2022-10-07T15:15:35.808Z,100598.41
2022-10-07T15:18:23.961Z,100592.00
2022-10-07T15:21:05.995Z,100591.97
2022-10-07T15:23:41.393Z,100588.31
2022-10-07T15:26:30.034Z,100586.16
2022-10-07T15:29:17.745Z,100592.34
2022-10-07T15:32:00.619Z,100584.34
2022-10-07T15:34:41.175Z,100596.88
2022-10-07T15:37:19.674Z,100589.50
2022-10-07T15:39:55.338Z,100584.09
2022-10-07T15:42:44.788Z,100588.94
2022-10-07T15:45:21.076Z,100585.28
2022-10-07T15:48:00.621Z,100581.25
2022-10-07T15:50:39.493Z,100594.28
2022-10-07T15:53:15.390Z,100588.44
2022-10-07T15:55:56.825Z,100585.88
2022-10-07T15:58:30.505Z,100585.34
2022-10-07T16:01:04.167Z,100584.53
2022-10-07T16:03:49.882Z,100588.28
2022-10-07T16:06:36.829Z,100579.31
2022-10-07T16:09:31.228Z,100594.34
2022-10-07T16:12:16.200Z,100588.06
2022-10-07T16:14:59.218Z,100596.78
2022-10-07T16:17:35.192Z,100592.94
2022-10-07T16:20:21.259Z,100594.16
2022-10-07T16:22:56.483Z,100590.34
2022-10-07T16:25:37.971Z,100590.13
2022-10-07T16:28:30.290Z,100592.41
2022-10-07T16:31:08.802Z,100591.44
2022-10-07T16:33:46.664Z,100595.50
2022-10-07T16:36:44.715Z,100593.94
2022-10-07T16:39:20.161Z,100594.75
2022-10-07T16:42:01.316Z,100587.03
2022-10-07T16:44:33.647Z,100591.78
2022-10-07T16:47:17.945Z,100591.09
2022-10-07T16:49:54.356Z,100587.63
2022-10-07T16:52:37.447Z,100594.50
2022-10-07T16:55:15.669Z,100590.81
2022-10-07T16:57:55.176Z,100593.84
2022-10-07T17:00:37.940Z,100597.66
2022-10-07T17:03:13.332Z,100595.28
2022-10-07T17:05:45.723Z,100590.50
2022-10-07T17:08:24.846Z,100585.69
2022-10-07T17:10:59.966Z,100596.16
2022-10-07T17:13:38.152Z,100595.47
2022-10-07T17:16:13.017Z,100597.72
2022-10-07T17:18:53.669Z,100589.69
2022-10-07T17:21:42.139Z,100584.28
2022-10-07T17:24:22.391Z,100582.22
2022-10-07T17:27:00.783Z,100587.97
2022-10-07T17:29:39.057Z,100587.59
2022-10-07T17:32:15.261Z,100595.13
2022-10-07T17:34:50.708Z,100591.16
2022-10-07T17:37:36.922Z,100593.19
2022-10-07T17:40:13.035Z,100591.56
2022-10-07T17:42:42.835Z,100589.78
2022-10-07T17:45:15.762Z,100590.88
2022-10-07T17:47:53.720Z,100595.28
2022-10-07T17:50:39.194Z,100588.66
2022-10-07T17:53:19.608Z,100590.19
2022-10-07T17:55:52.788Z,100591.88
2022-10-07T17:58:26.844Z,100585.41
2022-10-07T18:01:10.867Z,100589.00
2022-10-07T18:03:43.832Z,100596.72
2022-10-07T18:06:42.646Z,100591.09
2022-10-07T18:09:25.433Z,100591.34
2022-10-07T18:12:16.419Z,100585.56
2022-10-07T18:15:15.028Z,100583.09
2022-10-07T18:17:57.324Z,100580.63
2022-10-07T18:20:42.236Z,100576.09
2022-10-07T18:23:18.338Z,100585.28
2022-10-07T18:25:59.255Z,100580.69
2022-10-07T18:28:53.975Z,100582.19
2022-10-07T18:31:31.145Z,100574.50
2022-10-07T18:34:06.709Z,100574.91
2022-10-07T18:36:47.279Z,100572.00
2022-10-07T18:42:26.913Z,100570.94
2022-10-07T18:45:05.241Z,100566.59
2022-10-07T18:47:41.681Z,100566.16
2022-10-07T18:50:25.086Z,100560.75
2022-10-07T18:53:06.942Z,100563.28
2022-10-07T18:55:47.986Z,100562.63
2022-10-07T18:58:30.190Z,100567.22
2022-10-07T19:01:28.126Z,100563.28
2022-10-07T19:04:05.356Z,100563.06
2022-10-07T19:06:51.203Z,100559.09
2022-10-07T19:09:26.491Z,100554.72
2022-10-07T19:12:37.568Z,100554.06
2022-10-07T19:15:16.214Z,100553.69
2022-10-07T19:18:03.767Z,100561.16
2022-10-07T19:20:43.404Z,100554.91
2022-10-07T19:23:19.129Z,100555.97
2022-10-07T19:25:55.046Z,100562.81
2022-10-07T19:28:32.622Z,100557.00
2022-10-07T19:31:26.011Z,100561.56
2022-10-07T19:34:10.573Z,100563.63
2022-10-07T19:36:47.046Z,100564.25
2022-10-07T19:39:31.794Z,100558.84
2022-10-07T19:42:12.548Z,100556.53
2022-10-07T19:44:46.199Z,100553.00
2022-10-07T19:47:26.601Z,100554.03
2022-10-07T19:50:08.172Z,100551.09
2022-10-07T19:52:47.867Z,100550.44
2022-10-07T19:55:25.435Z,100547.53
2022-10-07T19:58:07.898Z,100546.03
2022-10-07T20:00:50.482Z,100547.69
2022-10-07T20:03:24.830Z,100557.00
2022-10-07T20:06:08.360Z,100554.91
2022-10-07T20:08:46.647Z,100550.13
2022-10-07T20:11:25.482Z,100555.06
2022-10-07T20:14:07.980Z,100550.47
2022-10-07T20:16:49.055Z,100544.66
2022-10-07T20:19:31.081Z,100540.84
2022-10-07T20:22:11.335Z,100549.38
2022-10-07T20:24:54.944Z,100550.00
2022-10-07T20:30:41.185Z,100543.53
2022-10-07T20:33:20.159Z,100542.69
2022-10-07T20:35:55.169Z,100545.78
2022-10-07T20:38:55.700Z,100544.31
2022-10-07T20:41:44.859Z,100537.81
2022-10-07T20:44:20.408Z,100541.13
2022-10-07T20:47:09.643Z,100533.59
2022-10-07T20:49:47.950Z,100533.38
2022-10-07T20:52:21.692Z,100536.47
2022-10-07T20:54:59.244Z,100535.59
2022-10-07T21:00:31.941Z,100533.34
2022-10-07T21:03:13.425Z,100536.88
2022-10-07T21:06:03.607Z,100529.34
2022-10-07T21:08:36.247Z,100523.13
2022-10-07T21:11:11.286Z,100530.19
2022-10-07T21:13:51.243Z,100527.69
2022-10-07T21:16:30.995Z,100531.41
2022-10-07T21:19:04.158Z,100527.25
2022-10-07T21:21:39.068Z,100528.09
2022-10-07T21:24:11.691Z,100535.16
2022-10-07T21:26:47.065Z,100534.72
2022-10-07T21:29:24.907Z,100525.16
2022-10-07T21:31:53.318Z,100532.16
2022-10-07T21:37:46.395Z,100526.38
2022-10-07T21:40:27.440Z,100523.88
2022-10-07T21:43:12.294Z,100525.94
2022-10-07T21:45:53.577Z,100535.47
2022-10-07T21:48:40.789Z,100525.25
2022-10-07T21:51:13.829Z,100522.97
2022-10-07T21:53:59.014Z,100520.44
2022-10-07T21:56:39.554Z,100519.63
2022-10-07T21:59:26.985Z,100522.31
2022-10-07T22:02:08.545Z,100511.69
2022-10-07T22:04:53.542Z,100513.38
2022-10-07T22:07:50.064Z,100509.81
2022-10-07T22:10:29.967Z,100512.53
2022-10-07T22:13:10.707Z,100510.44
2022-10-07T22:15:44.184Z,100497.97
2022-10-07T22:18:33.550Z,100500.41
2022-10-07T22:21:26.469Z,100501.63
2022-10-07T22:24:07.599Z,100494.38
2022-10-07T22:26:53.684Z,100484.78
2022-10-07T22:29:31.743Z,100485.03
2022-10-07T22:32:10.380Z,100489.59
2022-10-07T22:34:56.168Z,100481.69
2022-10-07T22:37:33.963Z,100474.66
2022-10-07T22:40:09.532Z,100480.44
2022-10-07T22:43:08.894Z,100474.97
2022-10-07T22:45:58.450Z,100476.59
2022-10-07T22:48:45.883Z,100476.16
2022-10-07T22:51:19.480Z,100478.22
2022-10-07T22:53:57.981Z,100477.97
2022-10-07T22:56:30.329Z,100477.31
2022-10-07T22:59:15.314Z,100475.22
2022-10-07T23:01:56.380Z,100476.63
2022-10-07T23:04:31.600Z,100465.22
2022-10-07T23:07:06.949Z,100476.38
2022-10-07T23:09:57.537Z,100472.53
2022-10-07T23:12:35.440Z,100465.44
2022-10-07T23:15:16.539Z,100470.41
2022-10-07T23:17:51.478Z,100476.59
2022-10-07T23:20:39.476Z,100470.06
2022-10-07T23:23:14.664Z,100477.72
2022-10-07T23:25:50.265Z,100469.38
2022-10-07T23:28:35.531Z,100467.72
2022-10-07T23:31:21.525Z,100467.25
2022-10-07T23:34:03.195Z,100466.81
2022-10-07T23:36:34.916Z,100465.31
2022-10-07T23:39:13.550Z,100468.38
2022-10-07T23:41:48.956Z,100460.50
2022-10-07T23:44:24.156Z,100461.50
2022-10-07T23:47:02.724Z,100460.88
2022-10-07T23:49:49.436Z,100459.03
2022-10-07T23:52:27.880Z,100452.34
2022-10-07T23:55:05.417Z,100451.88
2022-10-07T23:57:37.480Z,100463.88
